sensor_id;sensor_type;location;lat;lon;timestamp;P1;durP1;ratioP1;P2;durP2;ratioP2
2039;SDS011;1025;42.686;23.350;2022-10-12T00:01:09;10.03;;;9.33;;
2039;SDS011;1025;42.686;23.350;2022-10-12T00:03:36;12.93;;;11.60;;
2039;SDS011;1025;42.686;23.350;2022-10-12T00:06:03;14.90;;;13.57;;
2039;SDS011;1025;42.686;23.350;2022-10-12T00:08:30;11.60;;;10.70;;
2039;SDS011;1025;42.686;23.350;2022-10-12T00:10:58;13.50;;;12.10;;
2039;SDS011;1025;42.686;23.350;2022-10-12T00:13:25;13.27;;;12.00;;
2039;SDS011;1025;42.686;23.350;2022-10-12T00:15:51;13.70;;;12.50;;
2039;SDS011;1025;42.686;23.350;2022-10-12T00:18:18;14.03;;;12.10;;
2039;SDS011;1025;42.686;23.350;2022-10-12T00:20:44;11.77;;;10.97;;
2039;SDS011;1025;42.686;23.350;2022-10-12T00:23:11;11.93;;;10.93;;
2039;SDS011;1025;42.686;23.350;2022-10-12T00:25:38;12.67;;;11.67;;
2039;SDS011;1025;42.686;23.350;2022-10-12T00:28:07;12.77;;;11.77;;
2039;SDS011;1025;42.686;23.350;2022-10-12T00:30:33;12.03;;;11.23;;
2039;SDS011;1025;42.686;23.350;2022-10-12T00:33:00;11.17;;;10.37;;
2039;SDS011;1025;42.686;23.350;2022-10-12T00:35:27;13.70;;;11.97;;
2039;SDS011;1025;42.686;23.350;2022-10-12T00:37:53;14.13;;;12.87;;
2039;SDS011;1025;42.686;23.350;2022-10-12T00:40:20;13.77;;;12.67;;
2039;SDS011;1025;42.686;23.350;2022-10-12T00:42:47;13.57;;;12.57;;
2039;SDS011;1025;42.686;23.350;2022-10-12T00:45:15;13.40;;;12.30;;
2039;SDS011;1025;42.686;23.350;2022-10-12T00:47:43;13.17;;;12.03;;
2039;SDS011;1025;42.686;23.350;2022-10-12T00:50:15;14.83;;;13.63;;
2039;SDS011;1025;42.686;23.350;2022-10-12T00:52:45;14.63;;;13.13;;
2039;SDS011;1025;42.686;23.350;2022-10-12T00:55:14;15.23;;;13.90;;
2039;SDS011;1025;42.686;23.350;2022-10-12T00:57:42;14.40;;;13.07;;
2039;SDS011;1025;42.686;23.350;2022-10-12T01:00:09;16.83;;;15.50;;
2039;SDS011;1025;42.686;23.350;2022-10-12T01:02:39;13.90;;;12.60;;
2039;SDS011;1025;42.686;23.350;2022-10-12T01:05:07;13.57;;;12.37;;
2039;SDS011;1025;42.686;23.350;2022-10-12T01:07:34;14.83;;;13.60;;
2039;SDS011;1025;42.686;23.350;2022-10-12T01:10:00;13.03;;;12.07;;
2039;SDS011;1025;42.686;23.350;2022-10-12T01:12:27;13.37;;;12.47;;
2039;SDS011;1025;42.686;23.350;2022-10-12T01:14:53;13.30;;;12.37;;
2039;SDS011;1025;42.686;23.350;2022-10-12T01:17:23;13.53;;;12.33;;
2039;SDS011;1025;42.686;23.350;2022-10-12T01:22:53;13.03;;;11.73;;
2039;SDS011;1025;42.686;23.350;2022-10-12T01:25:26;15.40;;;11.87;;
2039;SDS011;1025;42.686;23.350;2022-10-12T01:27:59;11.50;;;10.53;;
2039;SDS011;1025;42.686;23.350;2022-10-12T01:30:29;12.53;;;11.23;;
2039;SDS011;1025;42.686;23.350;2022-10-12T01:33:04;13.40;;;12.20;;
2039;SDS011;1025;42.686;23.350;2022-10-12T01:35:36;13.03;;;11.73;;
2039;SDS011;1025;42.686;23.350;2022-10-12T01:38:05;10.97;;;10.20;;
2039;SDS011;1025;42.686;23.350;2022-10-12T01:40:36;14.33;;;12.17;;
2039;SDS011;1025;42.686;23.350;2022-10-12T01:43:03;13.53;;;12.43;;
2039;SDS011;1025;42.686;23.350;2022-10-12T01:45:31;11.40;;;10.50;;
2039;SDS011;1025;42.686;23.350;2022-10-12T01:47:57;10.57;;;9.87;;
2039;SDS011;1025;42.686;23.350;2022-10-12T01:50:26;11.50;;;10.73;;
2039;SDS011;1025;42.686;23.350;2022-10-12T01:52:55;11.77;;;10.97;;
2039;SDS011;1025;42.686;23.350;2022-10-12T01:55:29;12.60;;;11.47;;
2039;SDS011;1025;42.686;23.350;2022-10-12T01:58:04;11.13;;;10.27;;
2039;SDS011;1025;42.686;23.350;2022-10-12T02:00:34;12.77;;;11.77;;
2039;SDS011;1025;42.686;23.350;2022-10-12T02:03:05;11.67;;;10.83;;
2039;SDS011;1025;42.686;23.350;2022-10-12T02:05:36;12.13;;;11.03;;
2039;SDS011;1025;42.686;23.350;2022-10-12T02:08:05;14.23;;;9.87;;
2039;SDS011;1025;42.686;23.350;2022-10-12T02:10:36;10.63;;;9.87;;
2039;SDS011;1025;42.686;23.350;2022-10-12T02:13:04;11.10;;;10.13;;
2039;SDS011;1025;42.686;23.350;2022-10-12T02:15:33;14.00;;;10.40;;
2039;SDS011;1025;42.686;23.350;2022-10-12T02:18:01;11.50;;;10.60;;
2039;SDS011;1025;42.686;23.350;2022-10-12T02:20:28;11.07;;;10.27;;
2039;SDS011;1025;42.686;23.350;2022-10-12T02:22:56;12.87;;;11.80;;
2039;SDS011;1025;42.686;23.350;2022-10-12T02:25:23;11.93;;;11.03;;
2039;SDS011;1025;42.686;23.350;2022-10-12T02:27:53;10.77;;;9.97;;
2039;SDS011;1025;42.686;23.350;2022-10-12T02:30:21;9.57;;;8.87;;
2039;SDS011;1025;42.686;23.350;2022-10-12T02:32:50;11.50;;;10.30;;
2039;SDS011;1025;42.686;23.350;2022-10-12T02:35:19;17.50;;;10.67;;
2039;SDS011;1025;42.686;23.350;2022-10-12T02:37:48;8.57;;;8.07;;
2039;SDS011;1025;42.686;23.350;2022-10-12T02:40:17;10.63;;;9.83;;
2039;SDS011;1025;42.686;23.350;2022-10-12T02:42:45;11.50;;;10.70;;
2039;SDS011;1025;42.686;23.350;2022-10-12T02:45:14;10.50;;;9.47;;
2039;SDS011;1025;42.686;23.350;2022-10-12T02:47:42;8.93;;;8.23;;
2039;SDS011;1025;42.686;23.350;2022-10-12T02:50:11;10.77;;;9.97;;
2039;SDS011;1025;42.686;23.350;2022-10-12T02:52:38;9.83;;;8.93;;
2039;SDS011;1025;42.686;23.350;2022-10-12T02:55:05;10.87;;;10.07;;
2039;SDS011;1025;42.686;23.350;2022-10-12T02:57:32;10.97;;;10.03;;
2039;SDS011;1025;42.686;23.350;2022-10-12T02:59:58;9.27;;;8.40;;
2039;SDS011;1025;42.686;23.350;2022-10-12T03:02:25;12.37;;;11.37;;
2039;SDS011;1025;42.686;23.350;2022-10-12T03:04:51;8.53;;;8.07;;
2039;SDS011;1025;42.686;23.350;2022-10-12T03:07:20;10.17;;;9.17;;
2039;SDS011;1025;42.686;23.350;2022-10-12T03:09:46;10.00;;;9.20;;
2039;SDS011;1025;42.686;23.350;2022-10-12T03:12:13;11.03;;;10.03;;
2039;SDS011;1025;42.686;23.350;2022-10-12T03:14:39;10.60;;;9.90;;
2039;SDS011;1025;42.686;23.350;2022-10-12T03:17:06;12.00;;;11.10;;
2039;SDS011;1025;42.686;23.350;2022-10-12T03:19:32;12.40;;;11.40;;
2039;SDS011;1025;42.686;23.350;2022-10-12T03:21:59;20.90;;;10.37;;
2039;SDS011;1025;42.686;23.350;2022-10-12T03:24:27;13.20;;;11.07;;
2039;SDS011;1025;42.686;23.350;2022-10-12T03:26:53;10.80;;;10.03;;
2039;SDS011;1025;42.686;23.350;2022-10-12T03:29:20;13.90;;;11.07;;
2039;SDS011;1025;42.686;23.350;2022-10-12T03:31:46;12.10;;;11.10;;
2039;SDS011;1025;42.686;23.350;2022-10-12T03:34:13;10.27;;;9.47;;
2039;SDS011;1025;42.686;23.350;2022-10-12T03:36:40;15.83;;;12.13;;
2039;SDS011;1025;42.686;23.350;2022-10-12T03:39:06;10.60;;;9.93;;
2039;SDS011;1025;42.686;23.350;2022-10-12T03:41:34;13.93;;;12.53;;
2039;SDS011;1025;42.686;23.350;2022-10-12T03:44:00;11.47;;;10.50;;
2039;SDS011;1025;42.686;23.350;2022-10-12T03:46:27;11.13;;;10.00;;
2039;SDS011;1025;42.686;23.350;2022-10-12T03:48:53;11.97;;;10.80;;
2039;SDS011;1025;42.686;23.350;2022-10-12T03:51:20;11.90;;;10.70;;
2039;SDS011;1025;42.686;23.350;2022-10-12T03:53:47;11.47;;;10.73;;
2039;SDS011;1025;42.686;23.350;2022-10-12T03:56:13;14.93;;;11.17;;
2039;SDS011;1025;42.686;23.350;2022-10-12T03:58:42;13.97;;;11.60;;
2039;SDS011;1025;42.686;23.350;2022-10-12T04:01:09;12.07;;;11.10;;
2039;SDS011;1025;42.686;23.350;2022-10-12T04:03:36;10.83;;;9.90;;
2039;SDS011;1025;42.686;23.350;2022-10-12T04:06:04;13.87;;;10.97;;
2039;SDS011;1025;42.686;23.350;2022-10-12T04:08:31;10.70;;;9.80;;
2039;SDS011;1025;42.686;23.350;2022-10-12T04:10:58;10.60;;;9.90;;
2039;SDS011;1025;42.686;23.350;2022-10-12T04:13:24;11.00;;;10.10;;
2039;SDS011;1025;42.686;23.350;2022-10-12T04:15:52;10.87;;;10.10;;
2039;SDS011;1025;42.686;23.350;2022-10-12T04:18:19;12.63;;;11.53;;
2039;SDS011;1025;42.686;23.350;2022-10-12T04:20:46;12.50;;;10.23;;
2039;SDS011;1025;42.686;23.350;2022-10-12T04:23:13;11.70;;;10.77;;
2039;SDS011;1025;42.686;23.350;2022-10-12T04:25:40;11.97;;;10.93;;
2039;SDS011;1025;42.686;23.350;2022-10-12T04:28:06;12.17;;;10.90;;
2039;SDS011;1025;42.686;23.350;2022-10-12T04:30:33;12.53;;;11.50;;
2039;SDS011;1025;42.686;23.350;2022-10-12T04:33:01;11.30;;;10.20;;
2039;SDS011;1025;42.686;23.350;2022-10-12T04:35:27;14.20;;;12.87;;
2039;SDS011;1025;42.686;23.350;2022-10-12T04:37:54;13.33;;;12.43;;
2039;SDS011;1025;42.686;23.350;2022-10-12T04:40:21;16.07;;;11.43;;
2039;SDS011;1025;42.686;23.350;2022-10-12T04:42:47;12.67;;;11.57;;
2039;SDS011;1025;42.686;23.350;2022-10-12T04:45:14;13.03;;;12.03;;
2039;SDS011;1025;42.686;23.350;2022-10-12T04:47:41;12.53;;;11.33;;
2039;SDS011;1025;42.686;23.350;2022-10-12T04:50:09;11.57;;;10.70;;
2039;SDS011;1025;42.686;23.350;2022-10-12T04:52:35;11.60;;;10.80;;
2039;SDS011;1025;42.686;23.350;2022-10-12T04:55:02;11.97;;;11.07;;
2039;SDS011;1025;42.686;23.350;2022-10-12T04:57:28;11.57;;;10.57;;
2039;SDS011;1025;42.686;23.350;2022-10-12T04:59:55;10.67;;;9.70;;
2039;SDS011;1025;42.686;23.350;2022-10-12T05:02:21;9.37;;;8.67;;
2039;SDS011;1025;42.686;23.350;2022-10-12T05:04:48;15.00;;;11.10;;
2039;SDS011;1025;42.686;23.350;2022-10-12T05:07:17;9.40;;;8.70;;
2039;SDS011;1025;42.686;23.350;2022-10-12T05:09:43;12.43;;;11.30;;
2039;SDS011;1025;42.686;23.350;2022-10-12T05:12:10;12.30;;;11.30;;
2039;SDS011;1025;42.686;23.350;2022-10-12T05:14:36;11.93;;;10.87;;
2039;SDS011;1025;42.686;23.350;2022-10-12T05:17:03;24.33;;;12.13;;
2039;SDS011;1025;42.686;23.350;2022-10-12T05:19:29;11.43;;;10.43;;
2039;SDS011;1025;42.686;23.350;2022-10-12T05:21:56;13.97;;;10.97;;
2039;SDS011;1025;42.686;23.350;2022-10-12T05:24:24;11.03;;;10.27;;
2039;SDS011;1025;42.686;23.350;2022-10-12T05:26:50;11.57;;;10.47;;
2039;SDS011;1025;42.686;23.350;2022-10-12T05:29:17;11.57;;;10.80;;
2039;SDS011;1025;42.686;23.350;2022-10-12T05:31:43;12.60;;;11.60;;
2039;SDS011;1025;42.686;23.350;2022-10-12T05:34:10;12.50;;;11.40;;
2039;SDS011;1025;42.686;23.350;2022-10-12T05:36:36;13.87;;;12.67;;
2039;SDS011;1025;42.686;23.350;2022-10-12T05:39:03;11.63;;;10.73;;
2039;SDS011;1025;42.686;23.350;2022-10-12T05:41:31;10.80;;;10.00;;
2039;SDS011;1025;42.686;23.350;2022-10-12T05:43:57;11.70;;;10.60;;
2039;SDS011;1025;42.686;23.350;2022-10-12T05:46:24;11.40;;;10.40;;
2039;SDS011;1025;42.686;23.350;2022-10-12T05:48:50;11.97;;;10.97;;
2039;SDS011;1025;42.686;23.350;2022-10-12T05:51:17;11.60;;;10.10;;
2039;SDS011;1025;42.686;23.350;2022-10-12T05:53:43;10.97;;;9.97;;
2039;SDS011;1025;42.686;23.350;2022-10-12T05:56:10;16.33;;;10.60;;
2039;SDS011;1025;42.686;23.350;2022-10-12T05:58:38;13.60;;;12.43;;
2039;SDS011;1025;42.686;23.350;2022-10-12T06:01:05;12.77;;;10.80;;
2039;SDS011;1025;42.686;23.350;2022-10-12T06:03:32;10.87;;;10.13;;
2039;SDS011;1025;42.686;23.350;2022-10-12T06:05:58;14.00;;;13.00;;
2039;SDS011;1025;42.686;23.350;2022-10-12T06:08:25;11.67;;;10.73;;
2039;SDS011;1025;42.686;23.350;2022-10-12T06:10:51;12.80;;;11.97;;
2039;SDS011;1025;42.686;23.350;2022-10-12T06:13:19;14.03;;;12.63;;
2039;SDS011;1025;42.686;23.350;2022-10-12T06:15:47;13.40;;;12.50;;
2039;SDS011;1025;42.686;23.350;2022-10-12T06:18:14;15.07;;;13.77;;
2039;SDS011;1025;42.686;23.350;2022-10-12T06:20:44;16.93;;;11.30;;
2039;SDS011;1025;42.686;23.350;2022-10-12T06:23:11;11.43;;;10.60;;
2039;SDS011;1025;42.686;23.350;2022-10-12T06:25:37;10.93;;;10.20;;
2039;SDS011;1025;42.686;23.350;2022-10-12T06:28:04;16.53;;;15.13;;
2039;SDS011;1025;42.686;23.350;2022-10-12T06:30:31;19.67;;;17.73;;
2039;SDS011;1025;42.686;23.350;2022-10-12T06:32:59;18.88;;;17.17;;
2039;SDS011;1025;42.686;23.350;2022-10-12T06:35:25;18.70;;;17.10;;
2039;SDS011;1025;42.686;23.350;2022-10-12T06:37:53;19.87;;;18.27;;
2039;SDS011;1025;42.686;23.350;2022-10-12T06:40:20;14.67;;;13.67;;
2039;SDS011;1025;42.686;23.350;2022-10-12T06:42:47;14.47;;;13.20;;
2039;SDS011;1025;42.686;23.350;2022-10-12T06:45:14;13.57;;;12.33;;
2039;SDS011;1025;42.686;23.350;2022-10-12T06:47:41;14.13;;;13.00;;
2039;SDS011;1025;42.686;23.350;2022-10-12T06:50:09;13.80;;;12.60;;
2039;SDS011;1025;42.686;23.350;2022-10-12T06:52:35;12.40;;;11.60;;
2039;SDS011;1025;42.686;23.350;2022-10-12T06:55:02;13.30;;;12.20;;
2039;SDS011;1025;42.686;23.350;2022-10-12T06:57:29;17.20;;;15.70;;
2039;SDS011;1025;42.686;23.350;2022-10-12T06:59:56;15.47;;;14.10;;
2039;SDS011;1025;42.686;23.350;2022-10-12T07:02:22;13.87;;;12.77;;
2039;SDS011;1025;42.686;23.350;2022-10-12T07:04:49;12.83;;;11.63;;
2039;SDS011;1025;42.686;23.350;2022-10-12T07:07:17;13.80;;;12.60;;
2039;SDS011;1025;42.686;23.350;2022-10-12T07:09:43;13.37;;;12.37;;
2039;SDS011;1025;42.686;23.350;2022-10-12T07:12:10;13.83;;;12.70;;
2039;SDS011;1025;42.686;23.350;2022-10-12T07:14:37;18.33;;;12.67;;
2039;SDS011;1025;42.686;23.350;2022-10-12T07:17:03;18.10;;;11.77;;
2039;SDS011;1025;42.686;23.350;2022-10-12T07:19:30;14.00;;;12.87;;
2039;SDS011;1025;42.686;23.350;2022-10-12T07:21:57;13.43;;;12.27;;
2039;SDS011;1025;42.686;23.350;2022-10-12T07:24:27;13.27;;;11.97;;
2039;SDS011;1025;42.686;23.350;2022-10-12T07:27:00;15.37;;;13.90;;
2039;SDS011;1025;42.686;23.350;2022-10-12T07:29:28;12.57;;;11.47;;
2039;SDS011;1025;42.686;23.350;2022-10-12T07:31:55;12.20;;;11.23;;
2039;SDS011;1025;42.686;23.350;2022-10-12T07:34:22;16.27;;;13.70;;
2039;SDS011;1025;42.686;23.350;2022-10-12T07:36:48;12.17;;;10.97;;
2039;SDS011;1025;42.686;23.350;2022-10-12T07:39:15;12.83;;;11.70;;
2039;SDS011;1025;42.686;23.350;2022-10-12T07:41:43;13.00;;;11.80;;
2039;SDS011;1025;42.686;23.350;2022-10-12T07:44:09;14.33;;;12.93;;
2039;SDS011;1025;42.686;23.350;2022-10-12T07:46:36;11.57;;;10.67;;
2039;SDS011;1025;42.686;23.350;2022-10-12T07:49:02;11.17;;;10.40;;
2039;SDS011;1025;42.686;23.350;2022-10-12T07:51:29;11.33;;;10.63;;
2039;SDS011;1025;42.686;23.350;2022-10-12T07:53:56;12.70;;;11.60;;
2039;SDS011;1025;42.686;23.350;2022-10-12T07:56:25;11.60;;;10.83;;
2039;SDS011;1025;42.686;23.350;2022-10-12T07:58:54;10.87;;;10.13;;
2039;SDS011;1025;42.686;23.350;2022-10-12T08:01:21;11.23;;;10.33;;
2039;SDS011;1025;42.686;23.350;2022-10-12T08:03:48;11.60;;;10.63;;
2039;SDS011;1025;42.686;23.350;2022-10-12T08:06:16;11.90;;;10.83;;
2039;SDS011;1025;42.686;23.350;2022-10-12T08:08:42;11.43;;;10.37;;
2039;SDS011;1025;42.686;23.350;2022-10-12T08:11:10;11.27;;;10.37;;
2039;SDS011;1025;42.686;23.350;2022-10-12T08:13:37;10.23;;;9.43;;
2039;SDS011;1025;42.686;23.350;2022-10-12T08:16:06;14.17;;;12.77;;
2039;SDS011;1025;42.686;23.350;2022-10-12T08:18:33;12.43;;;11.40;;
2039;SDS011;1025;42.686;23.350;2022-10-12T08:21:02;10.67;;;9.70;;
2039;SDS011;1025;42.686;23.350;2022-10-12T08:23:29;10.80;;;10.00;;
2039;SDS011;1025;42.686;23.350;2022-10-12T08:25:56;23.13;;;10.93;;
2039;SDS011;1025;42.686;23.350;2022-10-12T08:28:23;8.87;;;8.33;;
2039;SDS011;1025;42.686;23.350;2022-10-12T08:30:50;8.23;;;7.70;;
2039;SDS011;1025;42.686;23.350;2022-10-12T08:33:18;9.30;;;8.60;;
2039;SDS011;1025;42.686;23.350;2022-10-12T08:35:45;10.80;;;10.00;;
2039;SDS011;1025;42.686;23.350;2022-10-12T08:38:12;10.63;;;9.87;;
2039;SDS011;1025;42.686;23.350;2022-10-12T08:40:41;9.43;;;8.73;;
2039;SDS011;1025;42.686;23.350;2022-10-12T08:43:12;8.57;;;8.07;;
2039;SDS011;1025;42.686;23.350;2022-10-12T08:45:42;11.43;;;10.60;;
2039;SDS011;1025;42.686;23.350;2022-10-12T08:48:13;9.50;;;8.70;;
2039;SDS011;1025;42.686;23.350;2022-10-12T08:50:44;11.30;;;10.20;;
2039;SDS011;1025;42.686;23.350;2022-10-12T08:53:12;9.13;;;8.53;;
2039;SDS011;1025;42.686;23.350;2022-10-12T08:55:41;18.87;;;9.97;;
2039;SDS011;1025;42.686;23.350;2022-10-12T08:58:11;10.60;;;9.93;;
2039;SDS011;1025;42.686;23.350;2022-10-12T09:00:40;12.83;;;11.00;;
2039;SDS011;1025;42.686;23.350;2022-10-12T09:03:11;11.50;;;10.47;;
2039;SDS011;1025;42.686;23.350;2022-10-12T09:05:39;14.57;;;13.13;;
2039;SDS011;1025;42.686;23.350;2022-10-12T09:08:10;11.40;;;10.40;;
2039;SDS011;1025;42.686;23.350;2022-10-12T09:10:43;8.47;;;7.77;;
2039;SDS011;1025;42.686;23.350;2022-10-12T09:13:15;10.87;;;9.93;;
2039;SDS011;1025;42.686;23.350;2022-10-12T09:15:47;9.17;;;8.47;;
2039;SDS011;1025;42.686;23.350;2022-10-12T09:18:15;9.33;;;8.53;;
2039;SDS011;1025;42.686;23.350;2022-10-12T09:20:45;10.10;;;9.20;;
2039;SDS011;1025;42.686;23.350;2022-10-12T09:23:16;11.47;;;10.67;;
2039;SDS011;1025;42.686;23.350;2022-10-12T09:25:46;10.77;;;9.97;;
2039;SDS011;1025;42.686;23.350;2022-10-12T09:28:16;20.00;;;10.87;;
2039;SDS011;1025;42.686;23.350;2022-10-12T09:30:45;8.97;;;7.90;;
2039;SDS011;1025;42.686;23.350;2022-10-12T09:33:14;10.57;;;9.60;;
2039;SDS011;1025;42.686;23.350;2022-10-12T09:35:42;11.73;;;9.90;;
2039;SDS011;1025;42.686;23.350;2022-10-12T09:38:10;10.50;;;9.47;;
2039;SDS011;1025;42.686;23.350;2022-10-12T09:40:38;10.90;;;9.80;;
2039;SDS011;1025;42.686;23.350;2022-10-12T09:43:05;11.53;;;10.27;;
2039;SDS011;1025;42.686;23.350;2022-10-12T09:45:33;10.03;;;9.23;;
2039;SDS011;1025;42.686;23.350;2022-10-12T09:48:13;9.20;;;8.70;;
2039;SDS011;1025;42.686;23.350;2022-10-12T09:50:40;10.00;;;8.90;;
2039;SDS011;1025;42.686;23.350;2022-10-12T09:53:12;9.77;;;9.00;;
2039;SDS011;1025;42.686;23.350;2022-10-12T09:55:41;10.30;;;9.40;;
2039;SDS011;1025;42.686;23.350;2022-10-12T09:58:17;8.87;;;8.27;;
2039;SDS011;1025;42.686;23.350;2022-10-12T10:00:44;9.50;;;8.70;;
2039;SDS011;1025;42.686;23.350;2022-10-12T10:03:20;9.97;;;8.83;;
2039;SDS011;1025;42.686;23.350;2022-10-12T10:05:48;7.60;;;7.17;;
2039;SDS011;1025;42.686;23.350;2022-10-12T10:08:27;10.17;;;9.40;;
2039;SDS011;1025;42.686;23.350;2022-10-12T10:10:55;9.43;;;8.47;;
2039;SDS011;1025;42.686;23.350;2022-10-12T10:13:22;10.40;;;9.53;;
2039;SDS011;1025;42.686;23.350;2022-10-12T10:15:50;9.63;;;9.03;;
2039;SDS011;1025;42.686;23.350;2022-10-12T10:18:19;11.00;;;10.20;;
2039;SDS011;1025;42.686;23.350;2022-10-12T10:20:48;8.83;;;8.27;;
2039;SDS011;1025;42.686;23.350;2022-10-12T10:23:23;9.33;;;8.53;;
2039;SDS011;1025;42.686;23.350;2022-10-12T10:25:55;8.57;;;7.97;;
2039;SDS011;1025;42.686;23.350;2022-10-12T10:28:23;9.97;;;9.17;;
2039;SDS011;1025;42.686;23.350;2022-10-12T10:30:56;9.20;;;8.50;;
2039;SDS011;1025;42.686;23.350;2022-10-12T10:33:24;9.37;;;8.67;;
2039;SDS011;1025;42.686;23.350;2022-10-12T10:35:56;8.47;;;7.80;;
2039;SDS011;1025;42.686;23.350;2022-10-12T10:38:23;8.83;;;7.97;;
2039;SDS011;1025;42.686;23.350;2022-10-12T10:40:50;8.43;;;7.83;;
2039;SDS011;1025;42.686;23.350;2022-10-12T10:43:20;8.70;;;8.17;;
2039;SDS011;1025;42.686;23.350;2022-10-12T10:45:50;8.47;;;7.67;;
2039;SDS011;1025;42.686;23.350;2022-10-12T10:48:18;7.60;;;7.00;;
2039;SDS011;1025;42.686;23.350;2022-10-12T10:50:49;6.30;;;5.90;;
2039;SDS011;1025;42.686;23.350;2022-10-12T10:53:17;8.30;;;7.50;;
2039;SDS011;1025;42.686;23.350;2022-10-12T10:55:46;8.57;;;7.90;;
2039;SDS011;1025;42.686;23.350;2022-10-12T10:58:23;8.20;;;7.40;;
2039;SDS011;1025;42.686;23.350;2022-10-12T11:00:54;7.53;;;7.00;;
2039;SDS011;1025;42.686;23.350;2022-10-12T11:03:22;7.10;;;6.70;;
2039;SDS011;1025;42.686;23.350;2022-10-12T11:05:52;7.20;;;6.70;;
2039;SDS011;1025;42.686;23.350;2022-10-12T11:08:21;10.17;;;9.27;;
2039;SDS011;1025;42.686;23.350;2022-10-12T11:10:49;11.33;;;7.90;;
2039;SDS011;1025;42.686;23.350;2022-10-12T11:13:19;7.80;;;7.20;;
2039;SDS011;1025;42.686;23.350;2022-10-12T11:15:47;7.80;;;7.30;;
2039;SDS011;1025;42.686;23.350;2022-10-12T11:18:16;7.73;;;7.23;;
2039;SDS011;1025;42.686;23.350;2022-10-12T11:20:45;10.03;;;9.03;;
2039;SDS011;1025;42.686;23.350;2022-10-12T11:23:24;7.67;;;7.10;;
2039;SDS011;1025;42.686;23.350;2022-10-12T11:25:55;7.60;;;6.40;;
2039;SDS011;1025;42.686;23.350;2022-10-12T11:28:25;7.90;;;6.43;;
2039;SDS011;1025;42.686;23.350;2022-10-12T11:30:55;6.67;;;6.30;;
2039;SDS011;1025;42.686;23.350;2022-10-12T11:33:22;7.37;;;6.87;;
2039;SDS011;1025;42.686;23.350;2022-10-12T11:35:50;7.77;;;7.10;;
2039;SDS011;1025;42.686;23.350;2022-10-12T11:38:19;8.33;;;6.67;;
2039;SDS011;1025;42.686;23.350;2022-10-12T11:40:49;8.67;;;7.97;;
2039;SDS011;1025;42.686;23.350;2022-10-12T11:43:18;13.13;;;6.63;;
2039;SDS011;1025;42.686;23.350;2022-10-12T11:45:47;8.30;;;6.17;;
2039;SDS011;1025;42.686;23.350;2022-10-12T11:48:17;6.87;;;6.40;;
2039;SDS011;1025;42.686;23.350;2022-10-12T11:50:46;7.43;;;7.00;;
2039;SDS011;1025;42.686;23.350;2022-10-12T11:53:14;7.23;;;6.83;;
2039;SDS011;1025;42.686;23.350;2022-10-12T11:55:49;5.63;;;5.33;;
2039;SDS011;1025;42.686;23.350;2022-10-12T11:58:20;7.07;;;6.57;;
2039;SDS011;1025;42.686;23.350;2022-10-12T12:00:56;6.97;;;6.57;;
2039;SDS011;1025;42.686;23.350;2022-10-12T12:03:27;7.80;;;7.20;;
2039;SDS011;1025;42.686;23.350;2022-10-12T12:05:55;7.00;;;6.60;;
2039;SDS011;1025;42.686;23.350;2022-10-12T12:11:16;7.40;;;6.77;;
2039;SDS011;1025;42.686;23.350;2022-10-12T12:13:44;5.80;;;5.50;;
2039;SDS011;1025;42.686;23.350;2022-10-12T12:24:37;6.40;;;6.03;;
2039;SDS011;1025;42.686;23.350;2022-10-12T12:27:12;5.70;;;5.40;;
2039;SDS011;1025;42.686;23.350;2022-10-12T12:29:48;7.93;;;7.33;;
2039;SDS011;1025;42.686;23.350;2022-10-12T12:32:15;8.03;;;7.53;;
2039;SDS011;1025;42.686;23.350;2022-10-12T12:34:46;9.33;;;8.17;;
2039;SDS011;1025;42.686;23.350;2022-10-12T12:37:17;7.90;;;7.40;;
2039;SDS011;1025;42.686;23.350;2022-10-12T12:39:45;8.10;;;7.43;;
2039;SDS011;1025;42.686;23.350;2022-10-12T12:42:19;7.10;;;6.60;;
2039;SDS011;1025;42.686;23.350;2022-10-12T12:44:47;6.77;;;6.17;;
2039;SDS011;1025;42.686;23.350;2022-10-12T12:47:14;7.80;;;7.30;;
2039;SDS011;1025;42.686;23.350;2022-10-12T12:49:42;7.60;;;6.90;;
2039;SDS011;1025;42.686;23.350;2022-10-12T12:52:11;7.80;;;7.10;;
2039;SDS011;1025;42.686;23.350;2022-10-12T12:54:40;8.87;;;7.87;;
2039;SDS011;1025;42.686;23.350;2022-10-12T12:57:14;7.30;;;6.80;;
2039;SDS011;1025;42.686;23.350;2022-10-12T12:59:56;9.20;;;7.40;;
2039;SDS011;1025;42.686;23.350;2022-10-12T13:02:33;8.03;;;6.00;;
2039;SDS011;1025;42.686;23.350;2022-10-12T13:07:54;7.00;;;6.47;;
2039;SDS011;1025;42.686;23.350;2022-10-12T13:10:25;7.43;;;6.77;;
2039;SDS011;1025;42.686;23.350;2022-10-12T13:15:41;6.07;;;5.67;;
2039;SDS011;1025;42.686;23.350;2022-10-12T13:18:24;7.97;;;7.37;;
2039;SDS011;1025;42.686;23.350;2022-10-12T13:20:53;9.23;;;8.37;;
2039;SDS011;1025;42.686;23.350;2022-10-12T13:23:21;7.50;;;7.10;;
2039;SDS011;1025;42.686;23.350;2022-10-12T13:25:49;7.63;;;7.03;;
2039;SDS011;1025;42.686;23.350;2022-10-12T13:28:17;21.13;;;10.37;;
2039;SDS011;1025;42.686;23.350;2022-10-12T13:30:48;8.03;;;7.10;;
2039;SDS011;1025;42.686;23.350;2022-10-12T13:33:19;6.87;;;6.27;;
2039;SDS011;1025;42.686;23.350;2022-10-12T13:35:47;9.83;;;9.10;;
2039;SDS011;1025;42.686;23.350;2022-10-12T13:38:19;6.87;;;6.47;;
2039;SDS011;1025;42.686;23.350;2022-10-12T13:40:48;8.50;;;7.90;;
2039;SDS011;1025;42.686;23.350;2022-10-12T13:43:16;8.73;;;8.13;;
2039;SDS011;1025;42.686;23.350;2022-10-12T13:45:43;8.23;;;7.70;;
2039;SDS011;1025;42.686;23.350;2022-10-12T13:48:12;8.07;;;7.43;;
2039;SDS011;1025;42.686;23.350;2022-10-12T13:50:48;6.53;;;6.13;;
2039;SDS011;1025;42.686;23.350;2022-10-12T13:53:15;11.50;;;7.23;;
2039;SDS011;1025;42.686;23.350;2022-10-12T13:55:41;7.43;;;6.97;;
2039;SDS011;1025;42.686;23.350;2022-10-12T13:58:17;7.80;;;7.30;;
2039;SDS011;1025;42.686;23.350;2022-10-12T14:00:45;8.87;;;8.03;;
2039;SDS011;1025;42.686;23.350;2022-10-12T14:03:13;7.33;;;6.87;;
2039;SDS011;1025;42.686;23.350;2022-10-12T14:05:41;7.23;;;6.73;;
2039;SDS011;1025;42.686;23.350;2022-10-12T14:08:09;9.37;;;8.40;;
2039;SDS011;1025;42.686;23.350;2022-10-12T14:10:37;8.03;;;7.53;;
2039;SDS011;1025;42.686;23.350;2022-10-12T14:13:05;8.60;;;7.97;;
2039;SDS011;1025;42.686;23.350;2022-10-12T14:15:33;8.90;;;8.13;;
2039;SDS011;1025;42.686;23.350;2022-10-12T14:18:01;8.60;;;7.93;;
2039;SDS011;1025;42.686;23.350;2022-10-12T14:20:30;7.40;;;7.00;;
2039;SDS011;1025;42.686;23.350;2022-10-12T14:22:58;7.00;;;6.50;;
2039;SDS011;1025;42.686;23.350;2022-10-12T14:25:28;7.27;;;6.87;;
2039;SDS011;1025;42.686;23.350;2022-10-12T14:27:55;7.83;;;7.33;;
2039;SDS011;1025;42.686;23.350;2022-10-12T14:30:23;8.70;;;7.27;;
2039;SDS011;1025;42.686;23.350;2022-10-12T14:32:52;8.60;;;7.50;;
2039;SDS011;1025;42.686;23.350;2022-10-12T14:35:20;9.40;;;8.60;;
2039;SDS011;1025;42.686;23.350;2022-10-12T14:37:48;8.83;;;8.33;;
2039;SDS011;1025;42.686;23.350;2022-10-12T14:40:21;6.90;;;6.50;;
2039;SDS011;1025;42.686;23.350;2022-10-12T14:42:53;7.80;;;7.40;;
2039;SDS011;1025;42.686;23.350;2022-10-12T14:45:21;8.00;;;7.50;;
2039;SDS011;1025;42.686;23.350;2022-10-12T14:47:48;8.20;;;7.70;;
2039;SDS011;1025;42.686;23.350;2022-10-12T14:50:15;8.47;;;7.70;;
2039;SDS011;1025;42.686;23.350;2022-10-12T14:52:44;8.63;;;7.93;;
2039;SDS011;1025;42.686;23.350;2022-10-12T14:55:14;8.63;;;8.03;;
2039;SDS011;1025;42.686;23.350;2022-10-12T14:57:41;8.30;;;7.80;;
2039;SDS011;1025;42.686;23.350;2022-10-12T15:00:09;12.40;;;8.63;;
2039;SDS011;1025;42.686;23.350;2022-10-12T15:02:35;9.20;;;8.40;;
2039;SDS011;1025;42.686;23.350;2022-10-12T15:05:03;8.87;;;8.07;;
2039;SDS011;1025;42.686;23.350;2022-10-12T15:07:30;9.20;;;8.23;;
2039;SDS011;1025;42.686;23.350;2022-10-12T15:09:58;9.33;;;8.43;;
2039;SDS011;1025;42.686;23.350;2022-10-12T15:12:26;8.63;;;7.87;;